Terminal Aerodrome Forecast
Issued by NWS

Home | Current Version | Previous Version | Text Only | Print | Product List | Glossary On
Versions: 1 2 3 4 5 6 7 8 9 10 11 12 13 14 15 16 17 18 19 20 21 22 23 24 25 26 27 28 29 30 31 32 33 34 35 36
000
FTUS43 KPAH 221505 AAA
TAFOWB
TAF AMD
KOWB 221505Z 2215/2312 17012G18KT P6SM VCSH BKN022 BKN060
     FM221630 16012KT 5SM SHRA SCT005 OVC015
     FM230000 17010KT 4SM -SHRA BR BKN010=

USA.gov is the U.S. government's official web portal to all federal, state and local government web resources and services.